Time;durP1;ratioP1;P1;durP2;ratioP2;P2;SDS_P1;SDS_P2;PMS_P1;PMS_P2;Temp;Humidity;BMP_temperature;BMP_pressure;BME280_temperature;BME280_humidity;BME280_pressure;Samples;Min_cycle;Max_cycle;Signal;HPM_P1;HPM_P2
2021/03/09 00:01:42;;;;;;;57.63;29.95;;;;;;;5.67;97.14;101830.41;5122758;27;20043;-46
2021/03/09 00:04:09;;;;;;;69.85;32.60;;;;;;;5.67;97.23;101824.88;5133082;27;20142;-47
2021/03/09 00:06:36;;;;;;;56.15;29.45;;;;;;;5.67;97.17;101826.81;5125777;27;20450;-46
2021/03/09 00:09:03;;;;;;;63.50;29.80;;;;;;;5.67;97.46;101821.28;5114250;27;20052;-47
2021/03/09 00:11:30;;;;;;;48.67;27.42;;;;;;;5.67;97.55;101816.56;5127044;27;20122;-46
2021/03/09 00:13:56;;;;;;;59.47;30.05;;;;;;;5.69;97.36;101828.25;5112931;28;20044;-47
2021/03/09 00:16:24;;;;;;;58.42;30.25;;;;;;;5.70;97.36;101826.31;5126252;27;20051;-48
2021/03/09 00:18:52;;;;;;;46.22;26.00;;;;;;;5.72;97.63;101824.16;5114580;27;20090;-46
2021/03/09 00:21:18;;;;;;;59.40;29.02;;;;;;;5.70;97.34;101816.09;5123500;27;20122;-46
2021/03/09 00:23:45;;;;;;;56.63;27.77;;;;;;;5.70;97.40;101816.09;5116543;27;20138;-46
2021/03/09 00:26:12;;;;;;;69.78;34.03;;;;;;;5.68;97.59;101811.88;5119724;27;20044;-46
2021/03/09 00:28:39;;;;;;;55.00;27.77;;;;;;;5.70;97.89;101813.31;5128360;27;20099;-47
2021/03/09 00:31:06;;;;;;;59.60;28.58;;;;;;;5.70;97.50;101807.78;5127229;27;20063;-46
2021/03/09 00:33:33;;;;;;;53.22;26.98;;;;;;;5.70;97.50;101813.31;5125689;27;20043;-46
2021/03/09 00:36:00;;;;;;;55.65;29.00;;;;;;;5.70;97.82;101805.00;5129325;27;20031;-46
2021/03/09 00:38:27;;;;;;;65.13;31.02;;;;;;;5.70;97.74;101812.47;5123536;27;20043;-46
2021/03/09 00:40:54;;;;;;;53.10;29.13;;;;;;;5.70;97.88;101799.47;5129922;27;20039;-46
2021/03/09 00:43:21;;;;;;;47.88;26.40;;;;;;;5.71;97.93;101803.94;5121984;27;20130;-49
2021/03/09 00:45:47;;;;;;;50.35;25.10;;;;;;;5.71;97.60;101809.47;5130459;27;20126;-47
2021/03/09 00:48:15;;;;;;;50.80;27.75;;;;;;;5.71;98.00;101803.94;5121118;27;20067;-46
2021/03/09 00:50:42;;;;;;;55.83;28.85;;;;;;;5.72;97.62;101802.84;5131825;27;20054;-46
2021/03/09 00:53:09;;;;;;;53.90;28.73;;;;;;;5.72;97.43;101793.69;5125380;27;20056;-48
2021/03/09 00:55:35;;;;;;;49.30;26.45;;;;;;;5.73;97.73;101799.00;5112698;27;20149;-47
2021/03/09 00:58:02;;;;;;;55.40;27.08;;;;;;;5.73;97.84;101801.75;5125832;27;20043;-48
2021/03/09 01:00:31;;;;;;;58.35;29.70;;;;;;;5.73;97.40;101807.31;5094747;28;20058;-47
2021/03/09 01:02:58;;;;;;;64.72;29.38;;;;;;;5.73;97.50;101799.00;5125208;27;20054;-47
2021/03/09 01:05:25;;;;;;;41.40;24.58;;;;;;;5.75;97.58;101802.38;5095211;28;20476;-46
2021/03/09 01:07:53;;;;;;;61.25;28.88;;;;;;;5.76;97.87;101800.44;5123241;27;20050;-46
2021/03/09 01:10:21;;;;;;;43.88;23.05;;;;;;;5.78;97.63;101798.28;5114871;27;20083;-47
2021/03/09 01:12:47;;;;;;;45.38;24.65;;;;;;;5.77;97.67;101791.03;5121324;27;20055;-48
2021/03/09 01:15:15;;;;;;;45.10;24.35;;;;;;;5.79;97.72;101795.25;5117019;27;20123;-47
2021/03/09 01:17:41;;;;;;;38.53;21.70;;;;;;;5.79;97.33;101789.72;5118884;27;20046;-47
2021/03/09 01:20:10;;;;;;;53.78;25.60;;;;;;;5.80;97.51;101785.84;5119878;27;20561;-48
2021/03/09 01:22:37;;;;;;;51.15;25.52;;;;;;;5.80;97.42;101785.84;5115932;27;20126;-48
2021/03/09 01:25:06;;;;;;;58.28;27.23;;;;;;;5.81;97.54;101784.75;5124927;27;20050;-48
2021/03/09 01:27:33;;;;;;;46.95;22.05;;;;;;;5.81;97.65;101781.97;5129685;27;20047;-50
2021/03/09 01:30:03;;;;;;;48.33;23.35;;;;;;;5.81;97.13;101772.81;5120871;27;20572;-47
2021/03/09 01:32:30;;;;;;;43.97;21.35;;;;;;;5.82;97.70;101771.75;5129531;27;20135;-48
2021/03/09 01:34:57;;;;;;;54.42;23.95;;;;;;;5.83;97.36;101770.66;5120937;27;20051;-50
2021/03/09 01:37:24;;;;;;;41.95;20.80;;;;;;;5.84;97.58;101764.88;5129837;27;20043;-47
2021/03/09 01:39:50;;;;;;;41.03;19.77;;;;;;;5.84;97.56;101764.88;5120706;27;20498;-48
2021/03/09 01:42:18;;;;;;;49.60;21.73;;;;;;;5.86;97.50;101762.69;5131245;27;20062;-46
2021/03/09 01:44:45;;;;;;;51.25;22.30;;;;;;;5.86;97.65;101762.69;5118796;27;20088;-48
2021/03/09 01:47:12;;;;;;;48.55;22.20;;;;;;;5.87;97.41;101756.06;5132485;27;20047;-49
2021/03/09 01:49:40;;;;;;;46.58;20.98;;;;;;;5.87;97.71;101753.31;5125921;27;20051;-50
2021/03/09 01:52:09;;;;;;;49.67;21.42;;;;;;;5.90;97.66;101756.72;5111346;28;20552;-53
2021/03/09 01:54:38;;;;;;;34.90;17.42;;;;;;;5.90;97.44;101756.72;5124198;27;20138;-48
2021/03/09 01:57:06;;;;;;;40.15;19.73;;;;;;;5.90;97.19;101748.41;5113040;28;20044;-51
2021/03/09 01:59:34;;;;;;;48.42;20.27;;;;;;;5.91;97.72;101747.31;5121506;27;20478;-48
2021/03/09 02:02:01;;;;;;;45.00;20.48;;;;;;;5.90;97.38;101746.47;5114207;28;20102;-48
2021/03/09 02:04:28;;;;;;;37.95;18.63;;;;;;;5.91;97.61;101752.84;5101121;27;20058;-49
2021/03/09 02:06:55;;;;;;;48.83;21.15;;;;;;;5.90;97.38;101749.25;5117068;27;20043;-47
2021/03/09 02:09:23;;;;;;;51.60;20.02;;;;;;;5.91;97.68;101756.47;5117396;27;20034;-50
2021/03/09 02:11:59;;;;;;;44.22;17.67;;;;;;;5.92;97.38;101749.00;5118848;27;20134;-48
2021/03/09 02:14:31;;;;;;;43.00;17.70;;;;;;;5.91;97.45;101748.16;5116827;28;20047;-50
2021/03/09 02:17:06;;;;;;;47.72;16.27;;;;;;;5.91;97.31;101742.63;5119531;28;20138;-48
2021/03/09 02:20:23;;;;;;;32.10;14.25;;;;;;;5.91;97.75;101739.00;5115849;28;20043;-49
2021/03/09 02:23:48;;;;;;;36.67;14.77;;;;;;;5.90;97.42;101740.09;5113584;28;20054;-47
2021/03/09 02:26:32;;;;;;;32.92;12.52;;;;;;;5.86;97.78;101734.16;5117143;28;20420;-46
2021/03/09 02:29:18;;;;;;;30.10;11.52;;;;;;;5.86;97.50;101735.00;5130442;28;20097;-47
2021/03/09 02:31:50;;;;;;;26.98;10.82;;;;;;;5.86;98.09;101731.41;5123234;28;20131;-47
2021/03/09 02:34:24;;;;;;;37.65;12.68;;;;;;;5.87;97.55;101724.75;5112761;28;20043;-50
2021/03/09 02:36:53;;;;;;;32.25;10.77;;;;;;;5.87;97.71;101724.75;5122934;28;20050;-48
2021/03/09 02:39:21;;;;;;;26.33;9.43;;;;;;;5.88;97.51;101721.78;5112793;28;20556;-47
2021/03/09 02:41:49;;;;;;;24.75;9.43;;;;;;;5.88;97.65;101719.00;5105177;28;20736;-46
2021/03/09 02:44:19;;;;;;;30.67;9.00;;;;;;;5.88;97.21;101719.00;5112158;28;20049;-50
2021/03/09 02:46:48;;;;;;;27.27;9.82;;;;;;;5.88;97.50;101715.38;5123659;28;20141;-46
2021/03/09 02:49:27;;;;;;;31.60;8.85;;;;;;;5.87;97.59;101714.53;5112142;28;20043;-51
2021/03/09 02:51:55;;;;;;;29.33;8.48;;;;;;;5.86;97.20;101714.78;5123867;28;20525;-51
2021/03/09 02:54:25;;;;;;;33.42;8.77;;;;;;;5.87;97.29;101706.22;5110437;28;20039;-49
2021/03/09 02:56:52;;;;;;;29.88;8.15;;;;;;;5.86;97.42;101709.22;5117969;28;20052;-48
2021/03/09 02:59:20;;;;;;;29.95;8.40;;;;;;;5.87;97.32;101706.22;5131645;28;20047;-48
2021/03/09 03:01:49;;;;;;;22.30;7.85;;;;;;;5.88;97.32;101705.16;5118532;28;20044;-49
2021/03/09 03:04:19;;;;;;;26.20;7.90;;;;;;;5.89;97.33;101703.25;5130166;28;20134;-49
2021/03/09 03:06:47;;;;;;;27.02;7.80;;;;;;;5.88;97.51;101704.28;5120843;28;20039;-48
2021/03/09 03:09:17;;;;;;;30.17;7.60;;;;;;;5.88;97.43;101701.53;5127163;28;20123;-47
2021/03/09 03:11:45;;;;;;;33.67;7.15;;;;;;;5.87;97.30;101697.91;5123283;28;20048;-48
2021/03/09 03:14:13;;;;;;;24.83;6.50;;;;;;;5.87;97.21;101710.91;5130125;27;20086;-47
2021/03/09 03:16:41;;;;;;;23.48;5.43;;;;;;;5.86;97.26;101709.22;5128014;27;20039;-48
2021/03/09 03:19:10;;;;;;;19.98;5.43;;;;;;;5.85;97.45;101716.69;5128242;27;20487;-47
2021/03/09 03:21:39;;;;;;;18.65;3.55;;;;;;;5.81;97.03;101712.75;5129960;27;20043;-48
2021/03/09 03:24:08;;;;;;;17.15;3.13;;;;;;;5.77;97.28;101710.72;5125951;27;20488;-49
2021/03/09 03:26:40;;;;;;;13.38;2.72;;;;;;;5.72;97.02;101714.22;5121646;27;20040;-51
2021/03/09 03:29:08;;;;;;;12.15;2.35;;;;;;;5.66;97.16;101712.44;5124560;27;20052;-50
2021/03/09 03:31:35;;;;;;;13.07;2.10;;;;;;;5.63;97.15;101710.16;5117063;27;20403;-49
2021/03/09 03:34:03;;;;;;;9.05;1.50;;;;;;;5.59;97.05;101703.47;5126400;27;20091;-47
2021/03/09 03:36:32;;;;;;;7.03;1.30;;;;;;;5.56;97.21;101717.78;5116430;27;20499;-47
2021/03/09 03:38:59;;;;;;;10.88;1.40;;;;;;;5.51;97.27;101712.97;5125895;27;20114;-51
2021/03/09 03:41:26;;;;;;;7.10;1.50;;;;;;;5.49;97.12;101717.06;5115884;27;20115;-50
2021/03/09 03:43:53;;;;;;;9.02;1.10;;;;;;;5.46;97.13;101715.63;5126333;27;20044;-48
2021/03/09 03:46:19;;;;;;;8.45;1.05;;;;;;;5.45;97.02;101713.94;5114972;27;20054;-48
2021/03/09 03:48:47;;;;;;;8.90;1.25;;;;;;;5.44;97.46;101716.94;5126832;27;20078;-48
2021/03/09 03:51:15;;;;;;;8.30;1.65;;;;;;;5.43;97.52;101713.34;5113764;28;20052;-48
2021/03/09 03:53:53;;;;;;;7.00;1.30;;;;;;;5.45;97.45;101715.88;5127591;27;20062;-47
2021/03/09 03:56:30;;;;;;;19.60;2.10;;;;;;;5.45;97.49;101711.16;5114245;28;20051;-49
2021/03/09 03:59:04;;;;;;;9.38;1.80;;;;;;;5.45;97.41;101711.16;5127377;27;20126;-52
2021/03/09 04:01:33;;;;;;;11.88;2.25;;;;;;;5.46;97.24;101718.41;5114072;28;20047;-53
2021/03/09 04:04:06;;;;;;;15.40;1.98;;;;;;;5.47;97.44;101710.94;5126835;27;20043;-50
2021/03/09 04:06:33;;;;;;;9.75;1.67;;;;;;;5.48;97.26;101715.38;5114090;28;20147;-48
2021/03/09 04:09:04;;;;;;;12.82;1.92;;;;;;;5.48;97.32;101710.69;5125348;27;20047;-50
2021/03/09 04:11:32;;;;;;;18.77;2.10;;;;;;;5.48;97.45;101709.84;5114456;27;20078;-51
2021/03/09 04:14:01;;;;;;;13.40;1.90;;;;;;;5.49;97.30;101708.75;5123744;27;20043;-50
2021/03/09 04:16:28;;;;;;;9.68;1.92;;;;;;;5.49;97.28;101706.00;5117245;27;20118;-53
2021/03/09 04:18:57;;;;;;;7.05;1.90;;;;;;;5.48;97.14;101696.00;5120969;27;20106;-49
2021/03/09 04:21:26;;;;;;;14.80;2.08;;;;;;;5.49;97.09;101706.00;5119063;27;20126;-49
2021/03/09 04:23:54;;;;;;;10.65;2.03;;;;;;;5.48;97.29;101705.16;5118686;27;20043;-49
2021/03/09 04:26:23;;;;;;;8.75;1.70;;;;;;;5.47;97.12;101706.25;5131892;27;20075;-50
2021/03/09 04:28:53;;;;;;;11.65;1.67;;;;;;;5.45;97.15;101710.34;5128435;27;20491;-49
2021/03/09 04:31:20;;;;;;;12.30;1.85;;;;;;;5.45;96.93;101710.34;5122513;27;20075;-50
2021/03/09 04:33:49;;;;;;;10.77;1.35;;;;;;;5.42;96.89;101705.28;5115172;27;20456;-48
2021/03/09 04:36:17;;;;;;;9.48;1.95;;;;;;;5.40;97.30;101702.75;5122704;27;20051;-48
2021/03/09 04:38:44;;;;;;;13.23;1.80;;;;;;;5.40;97.00;101708.28;5130663;27;20063;-50
2021/03/09 04:41:11;;;;;;;12.80;1.70;;;;;;;5.38;96.87;101710.50;5121698;27;20115;-52
2021/03/09 04:43:39;;;;;;;7.78;1.88;;;;;;;5.37;97.21;101711.56;5130828;27;20066;-48
2021/03/09 04:46:06;;;;;;;10.32;1.67;;;;;;;5.36;97.10;101701.59;5122190;27;20116;-48
2021/03/09 04:48:37;;;;;;;8.75;1.63;;;;;;;5.35;96.96;101710.13;5131418;27;20112;-49
2021/03/09 04:51:08;;;;;;;8.32;1.48;;;;;;;5.34;96.88;101708.44;5120421;27;20439;-47
2021/03/09 04:53:35;;;;;;;7.55;1.23;;;;;;;5.30;96.80;101710.84;5131719;27;20150;-48
2021/03/09 04:56:03;;;;;;;11.85;1.30;;;;;;;5.29;96.84;101711.94;5125620;27;20050;-49
2021/03/09 04:58:29;;;;;;;8.82;1.25;;;;;;;5.30;96.87;101715.53;5113101;28;20077;-47
2021/03/09 05:00:57;;;;;;;9.43;1.08;;;;;;;5.30;97.06;101719.16;5125555;27;20112;-48
2021/03/09 05:03:24;;;;;;;12.27;1.75;;;;;;;5.30;96.95;101716.38;5112788;27;20464;-48
2021/03/09 05:05:51;;;;;;;8.30;1.25;;;;;;;5.30;96.61;101716.38;5123512;27;20468;-50
2021/03/09 05:08:19;;;;;;;12.75;1.50;;;;;;;5.30;96.85;101713.63;5114848;27;20186;-49
2021/03/09 05:10:46;;;;;;;6.80;1.10;;;;;;;5.32;96.72;101721.69;5121341;27;20154;-49
2021/03/09 05:13:14;;;;;;;11.18;1.40;;;;;;;5.32;96.82;101721.69;5117335;27;20112;-49
2021/03/09 05:15:41;;;;;;;9.75;1.13;;;;;;;5.31;96.81;101717.22;5118748;27;20047;-47
2021/03/09 05:18:09;;;;;;;5.78;1.20;;;;;;;5.32;96.67;101716.16;5119427;27;20031;-47
2021/03/09 05:20:36;;;;;;;8.18;0.93;;;;;;;5.31;96.93;101720.84;5116876;27;20075;-48
2021/03/09 05:23:03;;;;;;;11.65;1.42;;;;;;;5.30;96.65;101719.16;5120748;27;20131;-49
2021/03/09 05:25:30;;;;;;;5.85;0.93;;;;;;;5.30;96.49;101723.84;5118921;27;20043;-50
2021/03/09 05:27:57;;;;;;;7.63;1.00;;;;;;;5.29;96.63;101727.69;5121575;27;20043;-51
2021/03/09 05:30:25;;;;;;;7.45;1.25;;;;;;;5.27;96.67;101724.31;5129033;27;20070;-50
2021/03/09 05:32:52;;;;;;;13.93;1.00;;;;;;;5.27;96.63;101724.31;5120900;27;20067;-49
2021/03/09 05:35:21;;;;;;;7.65;0.88;;;;;;;5.27;96.50;101729.88;5130283;27;20154;-51
2021/03/09 05:37:48;;;;;;;8.27;1.40;;;;;;;5.28;96.63;101731.53;5120223;27;20104;-49
2021/03/09 05:40:17;;;;;;;7.68;1.10;;;;;;;5.27;96.63;101729.88;5131028;27;20461;-48
2021/03/09 05:42:46;;;;;;;9.73;1.10;;;;;;;5.26;96.64;101731.78;5118798;27;20067;-50
2021/03/09 05:45:14;;;;;;;6.30;0.90;;;;;;;5.27;96.59;101729.88;5131880;27;20064;-48
2021/03/09 05:47:41;;;;;;;6.90;1.30;;;;;;;5.27;96.48;101736.25;5118912;27;20465;-52
2021/03/09 05:50:10;;;;;;;9.30;1.10;;;;;;;5.26;96.58;101736.47;5132101;27;20445;-50
2021/03/09 05:52:39;;;;;;;10.38;1.10;;;;;;;5.27;96.37;101740.94;5118591;27;20039;-50
2021/03/09 05:55:08;;;;;;;15.10;1.45;;;;;;;5.29;96.14;101744.31;5111858;28;20051;-51
2021/03/09 05:57:35;;;;;;;11.45;1.27;;;;;;;5.28;96.23;101749.00;5122244;27;20047;-49
2021/03/09 06:00:03;;;;;;;11.35;1.20;;;;;;;5.27;96.57;101749.22;5131827;27;20068;-51
2021/03/09 06:02:38;;;;;;;8.07;0.90;;;;;;;5.25;96.50;101752.25;5121190;27;20052;-49
2021/03/09 06:05:07;;;;;;;5.45;0.77;;;;;;;5.23;96.39;101746.09;5127806;27;20048;-49
2021/03/09 06:07:35;;;;;;;8.75;0.80;;;;;;;5.22;96.48;101746.34;5122959;27;20465;-53
2021/03/09 06:10:03;;;;;;;9.10;0.98;;;;;;;5.23;96.13;101751.63;5126134;27;20063;-53
2021/03/09 06:12:30;;;;;;;6.40;0.90;;;;;;;5.22;96.47;101755.47;5124746;27;20059;-53
2021/03/09 06:15:02;;;;;;;9.02;1.08;;;;;;;5.19;96.08;101756.84;5124102;27;20147;-53
2021/03/09 06:17:31;;;;;;;10.05;0.80;;;;;;;5.19;96.15;101756.84;5126160;28;20047;-50
2021/03/09 06:20:24;;;;;;;6.47;0.93;;;;;;;5.19;96.23;101762.38;5124110;28;20047;-53
2021/03/09 06:22:52;;;;;;;10.52;1.20;;;;;;;5.19;96.39;101754.06;5125127;28;20130;-49
2021/03/09 06:25:22;;;;;;;9.93;0.90;;;;;;;5.20;96.34;101760.41;5118653;28;20073;-52
2021/03/09 06:27:49;;;;;;;7.07;0.65;;;;;;;5.18;96.20;101763.44;5115926;28;20082;-52
2021/03/09 06:30:32;;;;;;;11.45;1.02;;;;;;;5.19;96.17;101764.28;5101954;28;20052;-52
2021/03/09 06:33:00;;;;;;;5.15;0.70;;;;;;;5.19;96.32;101767.06;5115112;28;20518;-51
2021/03/09 06:35:34;;;;;;;8.75;0.82;;;;;;;5.20;96.03;101768.72;5120368;28;20054;-49
2021/03/09 06:38:21;;;;;;;7.00;0.85;;;;;;;5.20;96.00;101766.78;5114450;28;20100;-47
2021/03/09 06:41:10;;;;;;;6.85;0.88;;;;;;;5.19;96.35;101767.06;5118622;28;20047;-48
2021/03/09 06:43:38;;;;;;;6.35;0.70;;;;;;;5.20;96.08;101761.25;5118026;28;20437;-51
2021/03/09 06:46:10;;;;;;;6.03;0.73;;;;;;;5.24;96.32;101769.09;5099091;28;20664;-49
2021/03/09 06:48:39;;;;;;;5.53;0.73;;;;;;;5.22;96.40;101763.78;5120231;27;20399;-49
2021/03/09 06:51:06;;;;;;;8.90;1.05;;;;;;;5.25;95.87;101768.00;5121505;27;20060;-48
2021/03/09 06:53:33;;;;;;;7.25;0.90;;;;;;;5.25;96.12;101776.31;5117297;27;20122;-50
2021/03/09 06:56:00;;;;;;;3.13;0.50;;;;;;;5.25;96.08;101773.53;5124899;27;20044;-49
2021/03/09 06:58:29;;;;;;;4.72;0.68;;;;;;;5.26;95.82;101778.00;5117035;27;20074;-48
2021/03/09 07:01:15;;;;;;;8.18;0.80;;;;;;;5.28;95.61;101773.91;5125658;27;20047;-50
2021/03/09 07:03:42;;;;;;;4.63;0.77;;;;;;;5.27;95.70;101782.44;5117702;27;20046;-48
2021/03/09 07:06:09;;;;;;;8.32;0.90;;;;;;;5.28;95.63;101786.88;5126541;27;20059;-50
2021/03/09 07:08:36;;;;;;;4.75;0.68;;;;;;;5.29;95.85;101783.03;5116952;27;20114;-48
2021/03/09 07:11:03;;;;;;;6.47;0.82;;;;;;;5.29;95.75;101781.13;5126027;27;20052;-48
2021/03/09 07:13:31;;;;;;;4.57;0.60;;;;;;;5.31;95.58;101786.41;5116228;27;20451;-50
2021/03/09 07:15:58;;;;;;;4.80;0.70;;;;;;;5.33;95.72;101785.09;5122045;27;20061;-49
2021/03/09 07:18:27;;;;;;;5.63;0.73;;;;;;;5.35;95.79;101779.31;5134084;27;20163;-49
2021/03/09 07:20:57;;;;;;;6.85;0.80;;;;;;;5.35;95.62;101782.09;5126898;27;20526;-49
2021/03/09 07:23:25;;;;;;;6.63;1.38;;;;;;;5.36;95.59;101794.84;5114400;28;20043;-50
2021/03/09 07:25:54;;;;;;;7.72;1.13;;;;;;;5.35;95.39;101780.16;5118711;27;20043;-50
2021/03/09 07:28:23;;;;;;;6.03;1.00;;;;;;;5.38;95.73;101792.69;5134546;27;20093;-48
2021/03/09 07:30:52;;;;;;;6.90;1.10;;;;;;;5.40;95.57;101793.25;5121918;27;20047;-49
2021/03/09 07:33:19;;;;;;;8.93;1.63;;;;;;;5.41;95.70;101794.94;5115676;27;20047;-48
2021/03/09 07:35:47;;;;;;;10.48;1.08;;;;;;;5.40;95.60;101787.72;5122960;27;20058;-48
2021/03/09 07:38:19;;;;;;;5.55;0.93;;;;;;;5.42;95.47;101796.63;5131938;27;20067;-49
2021/03/09 07:40:47;;;;;;;7.15;0.90;;;;;;;5.44;95.52;101803.59;5125252;27;20056;-50
2021/03/09 07:43:14;;;;;;;6.57;0.75;;;;;;;5.48;95.34;101798.44;5129527;27;20604;-49
2021/03/09 07:45:43;;;;;;;8.35;0.75;;;;;;;5.50;95.70;101796.25;5127162;27;20400;-51
2021/03/09 07:48:12;;;;;;;9.23;0.98;;;;;;;5.53;95.48;101809.63;5127845;27;20142;-48
2021/03/09 07:50:40;;;;;;;7.68;0.90;;;;;;;5.57;95.58;101798.91;5128420;27;20047;-47
2021/03/09 07:53:08;;;;;;;6.65;0.90;;;;;;;5.61;95.49;101800.91;5126304;27;20089;-48
2021/03/09 07:55:35;;;;;;;6.35;0.82;;;;;;;5.69;95.29;101805.25;5128070;27;20446;-49
2021/03/09 07:58:16;;;;;;;5.68;0.98;;;;;;;5.87;95.59;101808.69;5122272;27;20131;-49
2021/03/09 08:00:57;;;;;;;9.38;1.60;;;;;;;6.09;96.24;101810.84;5131028;27;20138;-50
2021/03/09 08:03:26;;;;;;;7.60;0.80;;;;;;;6.17;95.60;101800.22;5106792;27;20555;-51
2021/03/09 08:05:55;;;;;;;3.80;0.70;;;;;;;6.24;95.30;101805.59;5130642;27;20031;-54
2021/03/09 08:08:38;;;;;;;5.65;0.98;;;;;;;6.30;94.81;101801.84;5123739;27;20085;-49
2021/03/09 08:11:05;;;;;;;5.43;1.20;;;;;;;6.28;94.27;101805.94;5130101;27;20047;-50
2021/03/09 08:13:31;;;;;;;8.25;1.13;;;;;;;6.22;93.97;101805.84;5123278;27;20092;-48
2021/03/09 08:16:30;;;;;;;7.32;0.90;;;;;;;6.15;93.55;101815.41;5130783;27;20545;-50
2021/03/09 08:19:00;;;;;;;8.80;1.33;;;;;;;6.03;93.72;101817.34;5108564;28;20094;-51
2021/03/09 08:21:52;;;;;;;6.35;1.10;;;;;;;5.98;93.89;101826.44;5117257;27;20036;-49
2021/03/09 08:24:40;;;;;;;6.72;1.10;;;;;;;5.93;93.90;101833.78;5109523;27;20093;-51
2021/03/09 08:27:50;;;;;;;12.40;1.30;;;;;;;5.91;94.50;101819.34;5121187;27;20039;-52
2021/03/09 08:30:34;;;;;;;5.13;1.00;;;;;;;5.89;94.41;101827.88;5077363;28;20060;-55
2021/03/09 08:33:34;;;;;;;7.63;1.25;;;;;;;5.88;94.32;101815.09;5126453;27;20049;-50
2021/03/09 08:36:33;;;;;;;6.93;1.10;;;;;;;5.86;94.48;101828.34;5114586;27;20135;-52
2021/03/09 08:39:13;;;;;;;8.40;1.30;;;;;;;5.83;94.51;101826.88;5124140;27;20109;-52
2021/03/09 08:41:56;;;;;;;7.63;1.20;;;;;;;5.86;94.16;101825.56;5115768;27;20075;-51
2021/03/09 08:44:24;;;;;;;10.93;1.20;;;;;;;5.85;94.67;101827.50;5124609;27;20072;-52
2021/03/09 08:46:56;;;;;;;7.88;1.30;;;;;;;5.90;94.41;101828.72;5114937;27;20572;-52
2021/03/09 08:49:45;;;;;;;6.10;1.13;;;;;;;5.92;94.34;101821.03;5124549;27;20039;-51
2021/03/09 08:52:40;;;;;;;11.77;1.70;;;;;;;5.94;94.20;101833.53;5115447;27;20115;-52
2021/03/09 08:55:07;;;;;;;8.00;1.50;;;;;;;5.93;94.45;101829.09;5124077;27;20403;-50
2021/03/09 08:57:34;;;;;;;7.45;1.70;;;;;;;5.97;94.34;101830.28;5130252;27;20062;-50
2021/03/09 09:00:05;;;;;;;9.35;1.50;;;;;;;6.01;94.08;101834.22;5112151;28;20047;-50
2021/03/09 09:02:32;;;;;;;7.22;1.50;;;;;;;6.03;94.06;101828.44;5115220;27;20141;-52
2021/03/09 09:05:01;;;;;;;7.90;1.90;;;;;;;6.06;93.97;101827.94;5124106;27;20075;-52
2021/03/09 09:07:31;;;;;;;13.98;1.98;;;;;;;6.09;94.16;101824.69;5114472;27;20067;-51
2021/03/09 09:10:04;;;;;;;7.50;1.65;;;;;;;6.13;94.30;101825.91;5121205;27;20070;-53
2021/03/09 09:12:33;;;;;;;11.63;2.10;;;;;;;6.15;93.94;101819.03;5131263;27;20071;-48
2021/03/09 09:15:22;;;;;;;10.15;2.53;;;;;;;6.22;93.88;101828.00;5120077;27;20054;-49
2021/03/09 09:17:52;;;;;;;10.02;2.50;;;;;;;6.23;94.05;101821.38;5129854;27;20108;-50
2021/03/09 09:20:23;;;;;;;9.88;2.88;;;;;;;6.29;94.35;101827.88;5123977;27;20040;-51
2021/03/09 09:22:53;;;;;;;14.55;3.88;;;;;;;6.33;94.12;101825.47;5113077;27;20034;-48
2021/03/09 09:25:20;;;;;;;11.35;3.45;;;;;;;6.35;93.66;101832.44;5117216;27;20039;-49
2021/03/09 09:27:49;;;;;;;10.35;3.15;;;;;;;6.35;93.92;101832.44;5113110;27;20158;-51
2021/03/09 09:30:20;;;;;;;14.95;4.10;;;;;;;6.36;93.60;101819.41;5125141;27;20050;-49
2021/03/09 09:32:49;;;;;;;9.38;3.92;;;;;;;6.38;93.89;101829.19;5112692;28;20046;-51
2021/03/09 09:35:17;;;;;;;12.70;5.75;;;;;;;6.39;93.36;101822.53;5124975;27;20396;-49
2021/03/09 09:37:57;;;;;;;16.70;6.85;;;;;;;6.39;93.29;101825.31;5112353;28;20090;-50
2021/03/09 09:40:27;;;;;;;17.67;6.90;;;;;;;6.40;93.28;101824.19;5118501;27;20047;-50
2021/03/09 09:43:05;;;;;;;17.00;7.53;;;;;;;6.43;93.19;101820.94;5131983;27;20525;-48
2021/03/09 09:45:33;;;;;;;19.17;8.25;;;;;;;6.46;93.20;101820.44;5118167;27;20126;-51
2021/03/09 09:48:01;;;;;;;18.08;8.07;;;;;;;6.51;93.27;101823.31;5132579;27;20058;-49
2021/03/09 09:50:30;;;;;;;20.83;9.20;;;;;;;6.59;93.51;101815.69;5118655;27;20080;-53
2021/03/09 09:53:02;;;;;;;22.52;9.88;;;;;;;6.68;93.14;101819.72;5131198;27;20055;-49
2021/03/09 09:55:31;;;;;;;22.38;10.45;;;;;;;6.77;93.29;101810.75;5120247;27;20503;-47
2021/03/09 09:57:59;;;;;;;23.88;9.85;;;;;;;6.87;93.52;101812.84;5129354;27;20126;-48
2021/03/09 10:00:29;;;;;;;19.02;9.10;;;;;;;6.95;92.93;101814.38;5122475;27;20067;-51
2021/03/09 10:03:15;;;;;;;21.40;9.38;;;;;;;7.00;92.96;101826.38;5127346;27;20063;-50
2021/03/09 10:05:44;;;;;;;21.67;9.80;;;;;;;6.96;92.37;101825.22;5121532;27;20048;-49
2021/03/09 10:08:13;;;;;;;22.35;10.85;;;;;;;6.98;92.28;101823.06;5128654;27;20115;-48
2021/03/09 10:10:41;;;;;;;23.63;10.45;;;;;;;7.02;92.57;101823.38;5122395;27;20059;-48
2021/03/09 10:13:29;;;;;;;22.50;10.50;;;;;;;7.14;92.81;101827.75;5126630;27;20057;-48
2021/03/09 10:15:56;;;;;;;25.80;10.70;;;;;;;7.25;92.75;101821.25;5115797;27;20078;-47
2021/03/09 10:18:25;;;;;;;22.95;10.82;;;;;;;7.36;92.25;101822.28;5126854;28;20078;-51
2021/03/09 10:20:59;;;;;;;23.08;11.18;;;;;;;7.45;91.91;101814.34;5123809;28;20407;-48
2021/03/09 10:23:27;;;;;;;21.83;10.25;;;;;;;7.48;91.84;101813.84;5125988;28;20555;-47
2021/03/09 10:26:02;;;;;;;22.75;9.35;;;;;;;7.55;91.62;101818.13;5123630;28;20161;-46
2021/03/09 10:28:34;;;;;;;18.17;9.75;;;;;;;7.60;91.30;101823.72;5117426;28;20055;-45
2021/03/09 10:31:13;;;;;;;21.90;10.15;;;;;;;7.65;91.10;101825.75;5115983;28;20129;-46
2021/03/09 10:33:40;;;;;;;20.83;9.70;;;;;;;7.65;90.99;101825.75;5118273;28;20092;-46
2021/03/09 10:36:10;;;;;;;24.25;9.52;;;;;;;7.64;91.06;101818.50;5115775;28;20039;-45
2021/03/09 10:38:38;;;;;;;22.02;10.25;;;;;;;7.60;90.70;101823.72;5119475;28;20040;-46
2021/03/09 10:41:05;;;;;;;23.80;10.00;;;;;;;7.54;90.38;101826.72;5114073;28;20027;-47
2021/03/09 10:43:43;;;;;;;23.48;11.15;;;;;;;7.51;90.60;101824.44;5121959;28;20465;-48
2021/03/09 10:46:11;;;;;;;21.95;9.65;;;;;;;7.45;91.01;101822.66;5113086;28;20511;-46
2021/03/09 10:48:38;;;;;;;18.02;8.35;;;;;;;7.45;90.80;101825.44;5120506;28;20051;-48
2021/03/09 10:51:16;;;;;;;22.95;9.93;;;;;;;7.47;90.96;101826.88;5128710;28;20476;-47
2021/03/09 10:53:44;;;;;;;17.15;8.23;;;;;;;7.43;90.51;101825.69;5119531;28;20051;-46
2021/03/09 10:56:11;;;;;;;18.98;7.78;;;;;;;7.38;90.63;101824.81;5128204;28;20039;-47
2021/03/09 10:58:39;;;;;;;18.42;7.72;;;;;;;7.35;90.71;101830.84;5119971;28;20094;-49
2021/03/09 11:01:06;;;;;;;16.45;7.50;;;;;;;7.30;90.90;101828.84;5129185;28;20047;-48
2021/03/09 11:03:33;;;;;;;16.70;7.88;;;;;;;7.26;90.74;101828.50;5118579;28;20057;-46
2021/03/09 11:06:00;;;;;;;12.63;7.07;;;;;;;7.24;90.91;101833.47;5129916;28;20484;-44
2021/03/09 11:08:27;;;;;;;15.52;6.43;;;;;;;7.21;90.62;101831.19;5123265;28;20499;-46
2021/03/09 11:10:56;;;;;;;13.05;5.30;;;;;;;7.17;90.72;101835.59;5110727;28;20128;-47
2021/03/09 11:13:23;;;;;;;12.90;6.20;;;;;;;7.15;90.93;101840.53;5124097;28;20615;-46
2021/03/09 11:15:50;;;;;;;12.23;5.63;;;;;;;7.13;90.79;101844.66;5110872;28;20040;-48
2021/03/09 11:18:17;;;;;;;12.75;5.88;;;;;;;7.08;90.85;101855.66;5122209;28;20047;-48
2021/03/09 11:20:44;;;;;;;10.75;5.32;;;;;;;7.05;90.73;101845.06;5112307;28;20455;-47
2021/03/09 11:23:11;;;;;;;11.57;5.28;;;;;;;7.04;91.04;101858.09;5119545;28;20112;-46
2021/03/09 11:25:38;;;;;;;12.73;5.53;;;;;;;7.04;90.50;101857.25;5123580;28;20056;-48
2021/03/09 11:28:06;;;;;;;10.23;5.38;;;;;;;7.04;90.87;101858.09;5122931;28;20468;-45
2021/03/09 11:30:33;;;;;;;9.68;5.50;;;;;;;7.07;90.64;101846.50;5124285;28;20051;-47
2021/03/09 11:33:00;;;;;;;9.10;4.85;;;;;;;7.11;90.91;101847.69;5126757;27;20114;-46
2021/03/09 11:35:27;;;;;;;8.48;4.57;;;;;;;7.18;90.79;101848.38;5124944;27;20058;-47
2021/03/09 11:37:54;;;;;;;12.07;6.55;;;;;;;7.26;90.71;101856.25;5131416;27;20041;-45
2021/03/09 11:40:21;;;;;;;9.65;5.32;;;;;;;7.32;90.34;101854.41;5123339;27;20057;-48
2021/03/09 11:42:48;;;;;;;12.07;6.20;;;;;;;7.38;90.44;101852.56;5130842;27;20043;-46